Time;durP1;ratioP1;P1;durP2;ratioP2;P2;SDS_P1;SDS_P2;PMS_P1;PMS_P2;Temp;Humidity;BMP_temperature;BMP_pressure;BME280_temperature;BME280_humidity;BME280_pressure;Samples;Min_cycle;Max_cycle;Signal;HPM_P1;HPM_P2
2022/07/21 00:02:20;;;;;;;17.33;12.38;;;;;;;19.64;80.41;101670.81;5086538;27;20032;-90
2022/07/21 00:04:45;;;;;;;21.10;12.15;;;;;;;19.63;79.48;101669.91;5116241;27;20035;-90
2022/07/21 00:07:11;;;;;;;18.20;11.65;;;;;;;19.60;79.59;101662.00;5082340;28;20019;-90
2022/07/21 00:09:36;;;;;;;13.40;11.20;;;;;;;19.56;80.62;101663.13;5062691;28;20471;-91
2022/07/21 00:12:03;;;;;;;14.68;11.45;;;;;;;19.52;80.29;101653.44;5085082;28;20051;-91
2022/07/21 00:14:29;;;;;;;20.05;12.38;;;;;;;19.51;79.81;101646.31;5092471;28;20055;-91
2022/07/21 00:16:55;;;;;;;16.90;12.55;;;;;;;19.49;81.40;101656.28;5072492;28;20135;-90
2022/07/21 00:19:20;;;;;;;16.70;11.77;;;;;;;19.47;80.71;101655.47;5060110;28;20548;-91
2022/07/21 00:21:46;;;;;;;15.50;11.52;;;;;;;19.47;80.85;101675.16;5058482;28;20028;-91
2022/07/21 00:24:11;;;;;;;15.63;11.25;;;;;;;19.41;80.75;101662.00;5073487;28;20040;-91
2022/07/21 00:26:37;;;;;;;13.80;11.35;;;;;;;19.38;80.18;101663.94;5086912;28;20066;-91
2022/07/21 00:29:03;;;;;;;17.90;11.30;;;;;;;19.39;79.73;101661.22;5089547;28;20025;-90
2022/07/21 00:31:28;;;;;;;16.77;10.90;;;;;;;19.40;80.59;101659.38;5067107;28;20033;-91
2022/07/21 00:33:54;;;;;;;15.68;10.63;;;;;;;19.41;79.67;101671.84;5073164;28;20060;-91
2022/07/21 00:36:20;;;;;;;13.70;10.00;;;;;;;19.38;79.27;101661.25;5072446;28;20036;-91
2022/07/21 00:38:46;;;;;;;12.63;11.00;;;;;;;19.34;80.30;101665.91;5065280;28;20078;-91
2022/07/21 00:41:12;;;;;;;13.48;11.35;;;;;;;19.26;81.00;101668.94;5094462;28;20094;-90
2022/07/21 00:43:38;;;;;;;13.80;11.68;;;;;;;19.26;81.31;101663.59;5095453;28;20045;-90
2022/07/21 00:46:03;;;;;;;13.50;10.68;;;;;;;19.25;80.70;101661.81;5069426;28;20072;-79
2022/07/21 00:48:29;;;;;;;14.10;10.32;;;;;;;19.26;81.70;101670.75;5097414;28;20044;-79
2022/07/21 00:50:54;;;;;;;14.88;10.18;;;;;;;19.27;79.60;101661.75;5058170;28;20490;-79
2022/07/21 00:53:20;;;;;;;17.40;10.82;;;;;;;19.26;81.22;101652.84;5089954;28;20071;-80
2022/07/21 00:55:46;;;;;;;13.18;10.63;;;;;;;19.25;81.15;101660.97;5081043;28;20047;-80
2022/07/21 00:58:12;;;;;;;13.10;10.27;;;;;;;19.19;81.58;101662.13;5102939;28;20443;-81
2022/07/21 01:00:39;;;;;;;15.27;10.05;;;;;;;19.15;79.23;101652.44;5073057;28;20058;-80
2022/07/21 01:03:05;;;;;;;12.50;10.02;;;;;;;19.18;79.47;101654.13;5061477;28;20032;-80
2022/07/21 01:05:30;;;;;;;15.95;10.10;;;;;;;19.12;81.08;101653.44;5096120;28;20078;-80
2022/07/21 01:07:58;;;;;;;14.40;11.23;;;;;;;19.09;81.16;101653.59;5089498;28;20029;-80
2022/07/21 01:10:24;;;;;;;14.15;9.77;;;;;;;19.07;80.80;101649.25;5069851;28;20040;-79
2022/07/21 01:12:51;;;;;;;14.05;10.00;;;;;;;19.01;81.50;101644.13;5111569;28;20380;-80
2022/07/21 01:15:18;;;;;;;13.02;10.35;;;;;;;18.96;81.67;101632.72;5072179;28;20077;-81
2022/07/21 01:17:45;;;;;;;11.15;9.70;;;;;;;18.93;81.28;101631.03;5110616;28;20441;-91
2022/07/21 01:20:14;;;;;;;13.07;9.68;;;;;;;18.95;81.31;101636.34;5088647;28;20028;-91
2022/07/21 01:22:42;;;;;;;14.43;9.85;;;;;;;18.89;81.11;101635.69;5112455;28;20032;-91
2022/07/21 01:25:08;;;;;;;11.77;9.75;;;;;;;18.92;80.32;101634.69;5099030;28;20079;-91
2022/07/21 01:27:34;;;;;;;12.13;9.85;;;;;;;18.84;81.91;101632.34;5096559;28;20028;-91
2022/07/21 01:30:00;;;;;;;13.48;9.95;;;;;;;18.86;81.57;101640.31;5095091;28;20032;-91
2022/07/21 01:32:25;;;;;;;13.80;9.88;;;;;;;18.87;81.06;101636.69;5084757;28;20403;-91
2022/07/21 01:34:51;;;;;;;11.20;9.30;;;;;;;18.79;81.49;101628.09;5066697;28;20490;-92
2022/07/21 01:37:22;;;;;;;12.73;10.07;;;;;;;18.73;82.08;101623.84;5116285;28;20115;-91
2022/07/21 01:42:33;;;;;;;15.80;10.38;;;;;;;18.63;82.90;101634.09;5093918;28;20052;-92
2022/07/21 01:44:58;;;;;;;14.07;9.80;;;;;;;18.60;83.04;101638.72;5075660;28;20064;-90
2022/07/21 01:47:24;;;;;;;17.95;10.23;;;;;;;18.57;83.43;101633.47;5096336;28;20046;-91
2022/07/21 01:49:50;;;;;;;12.95;10.38;;;;;;;18.57;82.46;101623.66;5116149;28;20059;-91
2022/07/21 01:52:15;;;;;;;11.75;10.05;;;;;;;18.58;83.29;101621.81;5090151;28;20016;-91
2022/07/21 01:54:41;;;;;;;11.00;9.10;;;;;;;18.59;82.53;101626.25;5092725;28;20039;-90
2022/07/21 01:57:07;;;;;;;15.07;9.80;;;;;;;18.59;82.46;101636.97;5099276;28;20020;-92
2022/07/21 01:59:32;;;;;;;13.65;10.00;;;;;;;18.55;83.35;101630.88;5095538;28;20036;-91
2022/07/21 02:01:58;;;;;;;12.73;9.77;;;;;;;18.58;82.54;101635.25;5079816;28;20016;-92
2022/07/21 02:04:24;;;;;;;12.68;10.13;;;;;;;18.59;82.80;101639.66;5105479;28;20044;-90
2022/07/21 02:06:49;;;;;;;15.90;10.02;;;;;;;18.58;84.03;101644.16;5081858;28;20039;-92
2022/07/21 02:09:15;;;;;;;12.77;9.98;;;;;;;18.59;82.56;101636.97;5078197;28;20031;-92
2022/07/21 02:11:43;;;;;;;14.07;10.45;;;;;;;18.58;84.00;101638.78;5072118;28;20060;-91
2022/07/21 02:14:09;;;;;;;13.88;9.45;;;;;;;18.61;82.83;101645.81;5051533;28;20039;-92
2022/07/21 02:16:34;;;;;;;13.95;11.18;;;;;;;18.61;83.68;101638.66;5094671;28;20032;-90
2022/07/21 02:19:01;;;;;;;13.73;11.05;;;;;;;18.58;83.91;101644.16;5097885;28;20044;-91
2022/07/21 02:21:26;;;;;;;17.02;11.27;;;;;;;18.50;84.47;101638.25;5132005;27;20102;-92
2022/07/21 02:23:52;;;;;;;14.88;10.25;;;;;;;18.47;84.46;101630.31;5080925;28;20474;-92
2022/07/21 02:26:18;;;;;;;13.52;10.88;;;;;;;18.44;85.60;101635.81;5098665;28;20019;-91
2022/07/21 02:28:43;;;;;;;13.25;10.30;;;;;;;18.46;83.67;101631.25;5115370;28;20431;-92
2022/07/21 02:31:09;;;;;;;13.73;10.65;;;;;;;18.44;83.95;101627.75;5094653;28;20051;-93
2022/07/21 02:33:35;;;;;;;16.50;10.60;;;;;;;18.40;84.66;101619.00;5094894;28;20067;-92
2022/07/21 02:36:01;;;;;;;14.70;11.40;;;;;;;18.41;82.33;101628.75;5099489;28;20039;-91
2022/07/21 02:38:27;;;;;;;14.65;10.82;;;;;;;18.44;84.19;101634.00;5097435;28;20062;-91
2022/07/21 02:40:52;;;;;;;13.55;10.85;;;;;;;18.41;83.44;101631.44;5089742;28;20062;-91
2022/07/21 02:43:18;;;;;;;17.90;11.30;;;;;;;18.38;85.16;101620.84;5072972;28;20036;-93
2022/07/21 02:45:44;;;;;;;12.85;11.23;;;;;;;18.39;84.92;101616.34;5094892;28;20458;-93
2022/07/21 02:48:12;;;;;;;16.60;11.10;;;;;;;18.41;85.59;101623.41;5077608;28;20539;-92
2022/07/21 02:50:39;;;;;;;16.02;11.60;;;;;;;18.42;85.70;101622.47;5108454;27;20023;-81
2022/07/21 02:53:10;;;;;;;15.13;11.50;;;;;;;18.34;86.52;101618.38;5116933;27;20036;-81
2022/07/21 02:55:36;;;;;;;;;;;;;;;18.42;82.80;101621.59;5104693;28;20062;-81
2022/07/21 02:58:09;;;;;;;15.20;11.15;;;;;;;18.32;86.09;101615.72;5078882;28;20316;-92
2022/07/21 03:00:37;;;;;;;15.63;11.50;;;;;;;18.31;86.05;101603.28;5106350;28;20035;-91
2022/07/21 03:03:03;;;;;;;15.00;11.57;;;;;;;18.34;85.06;101599.59;5087423;28;20023;-94
2022/07/21 03:05:29;;;;;;;15.68;12.30;;;;;;;18.36;85.11;101595.91;5102961;28;20042;-91
2022/07/21 03:07:55;;;;;;;18.90;12.77;;;;;;;18.38;85.59;101606.59;5084837;28;20114;-92
2022/07/21 03:10:21;;;;;;;28.95;12.35;;;;;;;18.39;84.42;101608.31;5093010;28;20044;-92
2022/07/21 03:12:46;;;;;;;15.70;12.65;;;;;;;18.40;86.09;101608.25;5084073;28;20032;-93
2022/07/21 03:15:12;;;;;;;18.52;12.68;;;;;;;18.37;85.72;101607.50;5072695;28;20031;-92
2022/07/21 03:17:37;;;;;;;16.70;11.98;;;;;;;18.38;83.80;101610.13;5080425;28;20424;-92
2022/07/21 03:20:04;;;;;;;20.00;13.48;;;;;;;18.38;85.24;101610.13;5114765;28;20039;-92
2022/07/21 03:22:29;;;;;;;20.65;14.02;;;;;;;18.37;85.78;101604.81;5081004;28;20016;-92
2022/07/21 03:24:54;;;;;;;15.50;12.70;;;;;;;18.33;84.98;101606.78;5115016;28;20096;-92
2022/07/21 03:27:20;;;;;;;13.10;10.73;;;;;;;18.34;83.65;101611.19;5077507;28;20051;-92
2022/07/21 03:29:46;;;;;;;17.52;13.55;;;;;;;18.32;85.66;101607.69;5094255;28;20110;-92
2022/07/21 03:32:11;;;;;;;17.98;14.52;;;;;;;18.26;85.94;101614.19;5093969;28;20468;-92
2022/07/21 03:34:37;;;;;;;19.33;14.60;;;;;;;18.29;86.35;101615.88;5094722;28;20386;-93
2022/07/21 03:37:02;;;;;;;22.48;14.18;;;;;;;18.31;85.63;101621.19;5097616;28;20114;-92
2022/07/21 03:39:28;;;;;;;20.90;14.38;;;;;;;18.32;85.35;101621.09;5078360;28;20383;-93
2022/07/21 03:41:54;;;;;;;21.13;14.90;;;;;;;18.33;86.25;101619.31;5094031;28;20035;-93
2022/07/21 03:44:19;;;;;;;21.08;14.80;;;;;;;18.31;85.05;101614.00;5087264;28;20062;-92
2022/07/21 03:46:45;;;;;;;16.75;13.63;;;;;;;18.30;84.67;101616.75;5076950;28;20062;-93
2022/07/21 03:49:10;;;;;;;22.00;15.25;;;;;;;18.30;85.63;101611.38;5096900;28;20027;-92
2022/07/21 03:51:36;;;;;;;19.65;14.55;;;;;;;18.32;85.43;101617.56;5108286;28;20050;-91
2022/07/21 03:54:02;;;;;;;16.70;13.75;;;;;;;18.36;85.44;101625.41;5060197;28;20036;-91
2022/07/21 03:56:28;;;;;;;17.88;13.65;;;;;;;18.33;85.53;101625.53;5077165;28;20035;-93
2022/07/21 03:58:53;;;;;;;21.27;13.10;;;;;;;18.35;85.06;101630.84;5085805;28;20020;-93
2022/07/21 04:01:19;;;;;;;18.02;12.32;;;;;;;18.35;85.73;101623.69;5096808;28;20032;-93
2022/07/21 04:03:44;;;;;;;19.50;13.50;;;;;;;18.37;85.39;101629.84;5114029;28;20046;-92
2022/07/21 04:06:10;;;;;;;17.90;13.60;;;;;;;18.40;85.02;101635.09;5060013;28;20032;-92
2022/07/21 04:08:37;;;;;;;22.42;14.52;;;;;;;18.41;85.21;101635.94;5085230;27;20038;-93
2022/07/21 04:11:03;;;;;;;18.75;13.73;;;;;;;18.41;85.34;101625.22;5102828;27;20027;-93
2022/07/21 04:13:29;;;;;;;18.05;12.90;;;;;;;18.38;85.47;101633.41;5082996;28;20039;-94
2022/07/21 04:15:54;;;;;;;15.65;13.13;;;;;;;18.37;84.77;101631.63;5072671;27;20035;-92
2022/07/21 04:18:20;;;;;;;21.52;13.73;;;;;;;18.39;85.02;101635.13;5115455;27;20027;-92
2022/07/21 04:20:46;;;;;;;18.20;12.82;;;;;;;18.45;84.89;101629.53;5083350;28;20130;-92
2022/07/21 04:23:11;;;;;;;16.35;12.20;;;;;;;18.40;84.36;101627.03;5083931;28;20420;-93
2022/07/21 04:25:38;;;;;;;17.02;12.50;;;;;;;18.39;85.77;101627.94;5079950;28;20040;-92
2022/07/21 04:28:05;;;;;;;16.15;11.32;;;;;;;18.36;84.52;101628.09;5085894;27;20389;-92
2022/07/21 04:30:31;;;;;;;19.33;13.02;;;;;;;18.32;85.99;101623.78;5119387;28;20027;-93
2022/07/21 04:32:57;;;;;;;17.80;12.35;;;;;;;18.35;86.25;101615.63;5116633;28;20039;-92
2022/07/21 04:35:23;;;;;;;16.15;12.63;;;;;;;18.35;85.15;101618.31;5099066;28;20382;-92
2022/07/21 04:37:51;;;;;;;15.82;11.48;;;;;;;18.34;85.16;101624.59;5096185;28;20039;-93
2022/07/21 04:40:17;;;;;;;17.27;12.90;;;;;;;18.33;85.49;101622.00;5079616;28;20479;-93
2022/07/21 04:42:43;;;;;;;18.95;12.68;;;;;;;18.30;85.13;101614.97;5096000;28;20024;-92
2022/07/21 04:45:11;;;;;;;16.98;11.43;;;;;;;18.30;85.45;101622.09;5096137;28;20031;-94
2022/07/21 04:47:44;;;;;;;18.35;11.27;;;;;;;18.38;85.18;101630.72;5095176;28;20024;-93
2022/07/21 04:50:10;;;;;;;17.48;11.73;;;;;;;18.34;85.76;101629.09;5079628;28;20028;-92
2022/07/21 04:52:36;;;;;;;21.85;12.73;;;;;;;18.34;85.50;101621.03;5092387;28;20051;-92
2022/07/21 04:55:02;;;;;;;19.55;11.93;;;;;;;18.36;85.71;101635.25;5083489;28;20042;-93
2022/07/21 04:57:27;;;;;;;18.42;12.07;;;;;;;18.32;85.62;101629.16;5099292;28;20524;-92
2022/07/21 04:59:53;;;;;;;13.40;10.70;;;;;;;18.34;85.64;101635.31;5096154;28;20070;-94
2022/07/21 05:02:18;;;;;;;19.77;11.75;;;;;;;18.35;85.63;101641.59;5062752;28;20054;-94
2022/07/21 05:04:44;;;;;;;17.52;10.52;;;;;;;18.33;85.55;101638.09;5079177;28;20096;-93
2022/07/21 05:07:10;;;;;;;15.75;10.10;;;;;;;18.29;86.04;101633.78;5095810;28;20035;-91
2022/07/21 05:09:36;;;;;;;17.95;10.90;;;;;;;18.26;84.83;101629.41;5089121;28;20032;-93
2022/07/21 05:12:02;;;;;;;14.95;10.77;;;;;;;18.27;86.56;101636.50;5095602;28;20031;-93
2022/07/21 05:14:27;;;;;;;13.70;9.95;;;;;;;18.24;84.50;101634.81;5096239;28;20058;-92
2022/07/21 05:16:53;;;;;;;17.52;10.50;;;;;;;18.27;85.74;101623.09;5127921;27;20031;-94
2022/07/21 05:19:19;;;;;;;20.70;10.20;;;;;;;18.30;84.42;101636.41;5102574;28;20027;-94
2022/07/21 05:21:46;;;;;;;18.23;9.70;;;;;;;18.29;85.21;101629.28;5099186;28;20020;-93
2022/07/21 05:24:11;;;;;;;21.13;10.20;;;;;;;18.28;85.71;101627.53;5095713;28;20027;-93
2022/07/21 05:26:37;;;;;;;19.38;10.00;;;;;;;18.26;85.75;101624.91;5079102;28;20502;-93
2022/07/21 05:29:03;;;;;;;15.63;10.13;;;;;;;18.30;85.66;101620.31;5087551;27;20492;-92
2022/07/21 05:31:28;;;;;;;16.70;10.68;;;;;;;18.30;86.39;101631.03;5119683;27;20034;-94
2022/07/21 05:33:54;;;;;;;20.00;10.45;;;;;;;18.30;86.28;101627.47;5116277;27;20468;-92
2022/07/21 05:36:20;;;;;;;19.13;10.40;;;;;;;18.31;86.40;101631.91;5084700;27;20037;-93
2022/07/21 05:38:46;;;;;;;17.58;9.60;;;;;;;18.30;84.72;101624.78;5102940;27;20027;-92
2022/07/21 05:41:12;;;;;;;13.07;9.52;;;;;;;18.33;85.40;101622.88;5102787;27;20073;-93
2022/07/21 05:43:37;;;;;;;14.40;9.57;;;;;;;18.38;85.07;101630.72;5089108;28;20107;-92
2022/07/21 05:46:03;;;;;;;13.40;9.05;;;;;;;18.34;85.67;101629.09;5066095;28;20122;-92
2022/07/21 05:48:29;;;;;;;16.05;9.18;;;;;;;18.38;85.50;101628.03;5082317;28;20394;-92
2022/07/21 05:50:54;;;;;;;16.15;9.85;;;;;;;18.35;85.97;101622.81;5099728;27;20375;-92
2022/07/21 05:53:20;;;;;;;14.82;9.60;;;;;;;18.40;85.65;101628.84;5085519;27;20445;-93
2022/07/21 05:55:46;;;;;;;18.55;9.88;;;;;;;18.32;85.76;101621.09;5086865;27;20232;-93
2022/07/21 05:58:12;;;;;;;15.73;10.00;;;;;;;18.38;86.01;101626.22;5102850;27;20444;-93
2022/07/21 06:00:37;;;;;;;15.10;9.38;;;;;;;18.37;85.97;101626.28;5099148;28;20036;-92
2022/07/21 06:03:03;;;;;;;15.20;9.40;;;;;;;18.43;85.04;101618.84;5083240;27;20451;-91
2022/07/21 06:05:29;;;;;;;17.42;9.45;;;;;;;18.47;85.13;101615.13;5094627;28;20039;-93
2022/07/21 06:07:54;;;;;;;16.85;9.80;;;;;;;18.54;85.48;101618.38;5095280;27;20088;-93
2022/07/21 06:10:20;;;;;;;14.10;9.10;;;;;;;18.60;84.97;101618.13;5098687;28;20078;-90
2022/07/21 06:12:46;;;;;;;16.50;9.68;;;;;;;18.69;84.63;101617.75;5092849;27;20039;-93
2022/07/21 06:15:13;;;;;;;18.88;8.82;;;;;;;18.73;83.81;101613.09;5102014;27;20053;-91
2022/07/21 06:17:43;;;;;;;14.38;9.35;;;;;;;18.83;84.27;101617.16;5098499;28;20054;-92
2022/07/21 06:20:09;;;;;;;18.20;9.40;;;;;;;18.88;84.19;101616.97;5111667;27;20031;-91
2022/07/21 06:22:36;;;;;;;19.23;10.52;;;;;;;18.96;82.23;101617.47;5100622;27;20368;-91
2022/07/21 06:25:02;;;;;;;18.35;9.98;;;;;;;19.08;82.56;101616.06;5118801;27;20390;-92
2022/07/21 06:27:28;;;;;;;17.40;9.68;;;;;;;19.19;82.19;101621.84;5088094;27;20023;-89
2022/07/21 06:29:56;;;;;;;19.67;10.93;;;;;;;19.28;81.71;101620.53;5100963;27;20137;-92
2022/07/21 06:32:22;;;;;;;19.30;10.18;;;;;;;19.47;81.40;101625.94;5100709;27;20024;-90
2022/07/21 06:34:48;;;;;;;17.90;11.38;;;;;;;19.60;80.60;101621.72;5079929;28;20528;-89
2022/07/21 06:37:14;;;;;;;19.48;11.00;;;;;;;19.72;80.26;101623.00;5081250;28;20126;-90
2022/07/21 06:39:41;;;;;;;20.55;12.32;;;;;;;19.77;79.06;101613.75;5064594;28;20364;-92
2022/07/21 06:42:08;;;;;;;24.23;12.80;;;;;;;19.75;79.22;101610.25;5111646;27;20031;-90
2022/07/21 06:44:35;;;;;;;24.42;13.57;;;;;;;19.81;79.18;101619.00;5087652;27;20023;-89
2022/07/21 06:47:04;;;;;;;22.75;13.27;;;;;;;19.90;79.39;101618.53;5100114;27;20042;-89
2022/07/21 06:49:31;;;;;;;21.73;13.35;;;;;;;19.96;78.99;101626.31;5130971;27;20030;-90
2022/07/21 06:51:57;;;;;;;24.05;14.18;;;;;;;19.95;78.24;101629.94;5100923;27;20034;-89
2022/07/21 06:54:23;;;;;;;23.05;13.52;;;;;;;20.05;77.33;101635.72;5083862;27;20027;-89
2022/07/21 06:56:48;;;;;;;20.98;13.48;;;;;;;20.13;78.58;101641.63;5100703;27;20027;-91
2022/07/21 06:59:14;;;;;;;22.27;14.35;;;;;;;20.19;76.93;101638.63;5097443;28;20368;-89
2022/07/21 07:01:39;;;;;;;24.33;14.95;;;;;;;20.17;77.67;101643.19;5084907;27;20480;-91
2022/07/21 07:04:05;;;;;;;26.65;14.68;;;;;;;20.21;77.53;101643.94;5096747;28;20476;-90
2022/07/21 07:06:31;;;;;;;24.15;14.77;;;;;;;20.21;77.47;101643.94;5112863;27;20031;-90
2022/07/21 07:08:56;;;;;;;23.98;14.90;;;;;;;20.14;77.11;101638.84;5089059;27;20335;-91
2022/07/21 07:11:22;;;;;;;24.70;15.05;;;;;;;20.12;77.38;101645.25;5097247;28;20082;-90
2022/07/21 07:13:48;;;;;;;27.48;16.00;;;;;;;20.18;77.79;101647.66;5091786;28;20475;-89
2022/07/21 07:16:13;;;;;;;26.17;16.38;;;;;;;20.21;76.57;101635.88;5084857;28;20043;-90
2022/07/21 07:18:39;;;;;;;22.90;14.07;;;;;;;20.21;77.39;101649.31;5097098;28;20106;-90
2022/07/21 07:21:05;;;;;;;23.48;16.10;;;;;;;20.15;77.46;101645.97;5097763;28;20027;-89
2022/07/21 07:23:33;;;;;;;26.40;15.73;;;;;;;20.17;77.39;101644.06;5087560;28;20016;-88
2022/07/21 07:25:59;;;;;;;24.88;15.27;;;;;;;20.16;77.33;101641.47;5108043;28;20040;-88
2022/07/21 07:28:25;;;;;;;32.47;16.50;;;;;;;20.16;77.72;101647.72;5115175;27;20125;-88
2022/07/21 07:30:52;;;;;;;29.63;17.15;;;;;;;20.16;77.22;101646.84;5117373;27;20024;-84
2022/07/21 07:33:20;;;;;;;32.60;17.27;;;;;;;20.07;77.46;101645.47;5122831;27;20084;-82
2022/07/21 07:35:46;;;;;;;32.15;16.33;;;;;;;20.05;78.06;101641.97;5108426;28;20047;-82
2022/07/21 07:38:15;;;;;;;27.65;16.60;;;;;;;20.04;78.47;101651.00;5084083;28;20020;-83
2022/07/21 07:40:43;;;;;;;30.33;16.38;;;;;;;20.02;78.34;101643.97;5110164;28;20043;-83
2022/07/21 07:43:09;;;;;;;27.52;16.63;;;;;;;19.94;78.34;101652.41;5098441;28;20016;-83
2022/07/21 07:45:36;;;;;;;28.52;16.35;;;;;;;19.87;78.12;101645.56;5112741;28;20032;-84
2022/07/21 07:48:02;;;;;;;33.05;16.77;;;;;;;19.86;78.69;101652.78;5112597;28;20032;-82
2022/07/21 07:50:28;;;;;;;30.08;17.40;;;;;;;19.80;78.50;101644.97;5095337;28;20019;-82
2022/07/21 07:52:54;;;;;;;28.80;16.27;;;;;;;19.79;79.91;101651.31;5097529;28;20032;-79
2022/07/21 07:55:20;;;;;;;26.73;16.52;;;;;;;19.81;80.76;101656.63;5087306;28;20039;-79
2022/07/21 07:57:45;;;;;;;30.67;16.27;;;;;;;19.72;83.10;101660.59;5105173;28;20122;-75
2022/07/21 08:00:16;;;;;;;28.02;15.85;;;;;;;19.61;84.37;101663.78;5108983;28;20445;-75
2022/07/21 08:02:42;;;;;;;22.05;14.57;;;;;;;19.46;85.61;101664.47;5102241;28;20039;-77
2022/07/21 08:05:08;;;;;;;24.45;15.27;;;;;;;19.36;85.70;101665.81;5092744;28;20024;-78
2022/07/21 08:07:35;;;;;;;19.75;12.57;;;;;;;19.22;86.92;101661.09;5098069;28;20100;-79
2022/07/21 08:10:00;;;;;;;12.75;9.30;;;;;;;19.10;85.72;101663.38;5081458;28;20051;-77
2022/07/21 08:12:26;;;;;;;13.35;9.18;;;;;;;18.92;86.77;101664.22;5122724;27;20050;-79
2022/07/21 08:14:52;;;;;;;11.43;8.30;;;;;;;18.80;88.02;101662.91;5094583;28;20372;-79
2022/07/21 08:17:17;;;;;;;12.65;8.95;;;;;;;18.78;88.92;101666.59;5112232;27;20039;-79
2022/07/21 08:19:43;;;;;;;14.13;8.80;;;;;;;18.78;89.09;101667.47;5088487;28;20039;-80
2022/07/21 08:22:09;;;;;;;12.82;8.20;;;;;;;18.75;89.54;101658.66;5093820;28;20073;-84
2022/07/21 08:24:34;;;;;;;14.23;8.48;;;;;;;18.74;88.70;101671.19;5098560;28;20101;-86
2022/07/21 08:27:00;;;;;;;12.18;8.32;;;;;;;18.73;90.25;101671.28;5108280;28;20035;-86
2022/07/21 08:29:26;;;;;;;11.00;7.88;;;;;;;18.69;90.15;101662.47;5101483;27;20054;-85
2022/07/21 08:31:51;;;;;;;12.55;7.80;;;;;;;18.65;89.98;101663.53;5102574;28;20042;-86
2022/07/21 08:34:17;;;;;;;12.25;8.00;;;;;;;18.62;90.38;101656.50;5102180;28;20456;-86
2022/07/21 08:36:42;;;;;;;10.88;8.18;;;;;;;18.62;90.14;101663.66;5076231;27;20023;-86
2022/07/21 08:39:08;;;;;;;10.55;8.13;;;;;;;18.61;90.25;101675.34;5081493;28;20508;-87
2022/07/21 08:41:35;;;;;;;11.15;8.27;;;;;;;18.56;91.68;101667.47;5061768;28;20034;-86
2022/07/21 08:44:01;;;;;;;11.57;8.23;;;;;;;18.57;92.04;101669.25;5078865;28;20030;-86
2022/07/21 08:46:28;;;;;;;10.00;8.18;;;;;;;18.56;92.33;101671.97;5096682;28;20027;-86
2022/07/21 08:48:53;;;;;;;9.65;7.70;;;;;;;18.53;91.96;101664.06;5094970;28;20036;-86
2022/07/21 08:51:19;;;;;;;12.70;7.47;;;;;;;18.53;92.41;101669.44;5094467;28;20085;-85
2022/07/21 08:53:46;;;;;;;9.77;7.80;;;;;;;18.51;93.00;101669.47;5097437;28;20039;-86
2022/07/21 08:56:11;;;;;;;10.48;7.72;;;;;;;18.53;93.54;101661.38;5091857;28;20133;-84
2022/07/21 08:58:37;;;;;;;9.40;7.55;;;;;;;18.55;93.44;101663.06;5091918;28;20474;-86
2022/07/21 09:01:04;;;;;;;10.23;7.82;;;;;;;18.53;93.24;101664.94;5093197;28;20055;-83
2022/07/21 09:03:29;;;;;;;10.65;8.45;;;;;;;18.54;93.53;101663.97;5101457;28;20036;-84
2022/07/21 09:06:07;;;;;;;13.15;8.75;;;;;;;18.52;94.44;101667.66;5100752;28;20028;-86
2022/07/21 09:08:39;;;;;;;12.18;7.93;;;;;;;18.56;95.46;101664.78;5124909;27;20074;-85
2022/07/21 09:11:15;;;;;;;8.68;7.53;;;;;;;18.58;95.05;101667.44;5101058;27;20039;-84
2022/07/21 09:13:42;;;;;;;9.88;8.00;;;;;;;18.59;95.18;101664.66;5088763;28;20119;-85
2022/07/21 09:16:08;;;;;;;9.45;7.95;;;;;;;18.62;94.69;101667.25;5101047;27;20036;-84
2022/07/21 09:18:34;;;;;;;12.10;8.70;;;;;;;18.67;95.69;101669.72;5105773;27;20504;-84
2022/07/21 09:21:01;;;;;;;10.40;8.20;;;;;;;18.65;94.68;101671.59;5092804;27;20020;-84
2022/07/21 09:23:27;;;;;;;10.10;8.27;;;;;;;18.66;94.41;101668.81;5118363;27;20053;-85
2022/07/21 09:25:55;;;;;;;9.68;7.97;;;;;;;18.67;95.68;101672.41;5099888;27;20088;-85
2022/07/21 09:28:27;;;;;;;10.32;8.18;;;;;;;18.73;94.83;101679.31;5116954;27;20513;-84
2022/07/21 09:31:09;;;;;;;8.88;7.80;;;;;;;18.75;94.72;101688.19;5121331;27;20082;-84
2022/07/21 09:33:36;;;;;;;8.70;7.80;;;;;;;18.79;94.86;101685.34;5121145;27;20028;-84
2022/07/21 09:36:10;;;;;;;9.13;7.38;;;;;;;18.80;94.73;101691.56;5122513;27;20031;-84
2022/07/21 09:38:44;;;;;;;8.07;6.57;;;;;;;18.80;94.14;101691.56;5124557;27;20063;-85
2022/07/21 09:41:13;;;;;;;6.97;6.25;;;;;;;18.79;94.56;101695.16;5111072;27;20032;-86
2022/07/21 09:43:46;;;;;;;6.20;5.40;;;;;;;18.78;94.57;101688.06;5116763;27;20011;-85
2022/07/21 09:46:16;;;;;;;7.47;5.80;;;;;;;18.75;94.47;101694.41;5104913;27;20043;-85
2022/07/21 09:48:43;;;;;;;6.47;5.43;;;;;;;18.72;94.06;101699.91;5115247;27;20680;-86
2022/07/21 09:51:20;;;;;;;9.05;5.53;;;;;;;18.73;93.32;101707.00;5118236;27;20019;-85
2022/07/21 09:54:07;;;;;;;7.10;5.70;;;;;;;18.62;92.91;101702.09;5096231;28;20038;-84
2022/07/21 09:56:35;;;;;;;4.97;4.20;;;;;;;18.53;91.92;101707.84;5096965;28;20106;-86
2022/07/21 09:59:01;;;;;;;7.32;3.95;;;;;;;18.47;92.62;101710.75;5113809;27;20042;-86
2022/07/21 10:01:28;;;;;;;4.63;4.18;;;;;;;18.40;92.87;101706.63;5092206;27;20039;-88
2022/07/21 10:03:56;;;;;;;11.02;4.70;;;;;;;18.36;93.75;101708.53;5093851;27;20038;-89
2022/07/21 10:06:30;;;;;;;6.40;4.40;;;;;;;18.40;93.26;101715.53;5080336;27;20036;-87
2022/07/21 10:08:57;;;;;;;5.85;4.30;;;;;;;18.37;93.05;101717.44;5104298;27;20038;-89
2022/07/21 10:11:24;;;;;;;6.32;4.13;;;;;;;18.30;92.84;101722.22;5081775;28;20042;-87
2022/07/21 10:13:50;;;;;;;5.57;3.85;;;;;;;18.30;92.75;101719.53;5094088;27;20036;-88
2022/07/21 10:16:16;;;;;;;5.53;4.25;;;;;;;18.30;92.68;101726.66;5100831;27;20042;-88
2022/07/21 10:18:53;;;;;;;5.68;4.28;;;;;;;18.31;93.62;101726.63;5096255;27;20104;-87
2022/07/21 10:21:30;;;;;;;9.38;4.28;;;;;;;18.21;93.32;101733.28;5100195;27;20038;-86
2022/07/21 10:23:55;;;;;;;7.15;4.50;;;;;;;18.24;93.26;101743.88;5120688;27;20542;-85
2022/07/21 10:26:22;;;;;;;5.88;4.28;;;;;;;18.17;93.63;101732.50;5121591;27;20023;-86
2022/07/21 10:28:48;;;;;;;7.13;4.28;;;;;;;18.16;93.56;101738.81;5124686;27;20041;-88
2022/07/21 10:31:14;;;;;;;8.57;5.00;;;;;;;18.15;94.53;101741.56;5123693;27;20133;-88
2022/07/21 10:33:45;;;;;;;6.85;4.22;;;;;;;18.14;94.18;101750.53;5125223;27;20126;-87
2022/07/21 10:36:34;;;;;;;6.70;4.80;;;;;;;18.12;94.17;101757.75;5123335;27;20064;-89
2022/07/21 10:39:05;;;;;;;5.88;4.65;;;;;;;18.09;95.02;101760.56;5095833;27;20047;-87
2022/07/21 10:41:39;;;;;;;6.90;4.32;;;;;;;18.09;94.68;101755.22;5122879;27;20114;-87
2022/07/21 10:44:26;;;;;;;8.77;5.00;;;;;;;18.16;94.81;101759.41;5091765;27;20093;-87
2022/07/21 10:47:07;;;;;;;8.00;5.18;;;;;;;18.17;96.10;101758.47;5125558;27;20042;-87
2022/07/21 10:49:46;;;;;;;7.85;5.05;;;;;;;18.17;95.28;101748.59;5107409;27;20087;-87
2022/07/21 10:52:41;;;;;;;9.07;5.53;;;;;;;18.19;94.47;101756.59;5107117;27;20047;-88
2022/07/21 10:55:10;;;;;;;9.98;5.07;;;;;;;18.18;94.77;101763.78;5105252;27;20474;-89
2022/07/21 10:57:48;;;;;;;11.38;6.22;;;;;;;18.18;93.79;101750.38;5100956;27;20065;-87
2022/07/21 11:00:29;;;;;;;10.90;5.60;;;;;;;18.21;94.67;101760.09;5096991;28;20043;-88
2022/07/21 11:02:57;;;;;;;7.82;5.45;;;;;;;18.19;94.04;101770.00;5099725;27;20493;-88
2022/07/21 11:05:25;;;;;;;8.95;6.00;;;;;;;18.16;94.41;101754.91;5099395;27;20045;-88
2022/07/21 11:08:10;;;;;;;10.32;5.95;;;;;;;18.19;94.53;101761.97;5093262;27;20871;-89
2022/07/21 11:10:38;;;;;;;10.15;5.85;;;;;;;18.11;94.56;101769.44;5109248;27;20039;-88
2022/07/21 11:13:04;;;;;;;7.80;5.70;;;;;;;18.03;94.37;101761.69;5090322;27;20035;-88
2022/07/21 11:15:43;;;;;;;11.88;6.07;;;;;;;18.03;93.79;101762.56;5100730;27;20030;-89
2022/07/21 11:18:09;;;;;;;9.70;5.88;;;;;;;18.07;93.97;101770.47;5095257;28;20420;-89